This is the latest recevied weather packets stored in our database for station/object MM1PTT-13. If no packets are shown the sender has not sent any weather packets the latest 1 day(s).
| Time | Temp. | Humidity | Pressure | Rain* | Wind** | Luminosity | Snow |
|---|---|---|---|---|---|---|---|
| 1778083544 | 11.67° C | 53% | 984.8 hPa | 0 mm | - | 99 W/m² | - |
| 1778082643 | 11.67° C | 54% | 984.8 hPa | 0 mm | - | 159 W/m² | - |
| 1778081143 | 11.11° C | 57% | 985.1 hPa | 0 mm | - | 165 W/m² | - |
| 1778080246 | 11.11° C | 57% | 985.1 hPa | 0 mm | - | 172 W/m² | - |
| 1778079344 | 11.67° C | 55% | 985.4 hPa | 0 mm | - | 168 W/m² | - |
| 1778079044 | 11.67° C | 53% | 985.4 hPa | 0 mm | - | 233 W/m² | - |
| 1778075443 | 11.67° C | 47% | 985.8 hPa | 0 mm | - | 334 W/m² | - |
| 1778073043 | 11.67° C | 44% | 986.1 hPa | 0 mm | - | 947 W/m² | - |
| 1778072443 | 11.67° C | 45% | 986.1 hPa | 0 mm | - | 840 W/m² | - |
| 1778072144 | 11.67° C | 47% | 986.1 hPa | 0 mm | - | 772 W/m² | - |
| 1778070943 | 11.67° C | 44% | 986.1 hPa | 0 mm | - | 429 W/m² | - |
| 1778069743 | 12.78° C | 40% | 986.5 hPa | 0 mm | - | 533 W/m² | - |
| 1778067943 | 11.67° C | 45% | 986.5 hPa | 0 mm | - | 811 W/m² | - |
| 1778067643 | 12.22° C | 42% | 986.5 hPa | 0 mm | - | 892 W/m² | - |
| 1778067343 | 11.11° C | 47% | 986.5 hPa | 0 mm | - | 742 W/m² | - |
| 1778067046 | 12.22° C | 44% | 986.5 hPa | 0 mm | - | 1009 W/m² | - |
| 1778065845 | 11.67° C | 46% | 986.5 hPa | 0 mm | - | 995 W/m² | - |
| 1778064045 | 10.56° C | 50% | 987.1 hPa | 0 mm | - | 968 W/m² | - |
| 1778063743 | 11.11° C | 50% | 987.1 hPa | 0 mm | - | 983 W/m² | - |
| 1778063447 | 10.56° C | 50% | 986.8 hPa | 0 mm | - | 942 W/m² | - |
| 1778061943 | 11.11° C | 46% | 987.5 hPa | 0 mm | - | 1282 W/m² | - |
| 1778061343 | 10° C | 50% | 987.5 hPa | 0 mm | - | 962 W/m² | - |
| 1778060744 | 10.56° C | 45% | 987.5 hPa | 0 mm | - | 781 W/m² | - |
| 1778060443 | 10.56° C | 49% | 987.5 hPa | 0 mm | - | 648 W/m² | - |
| 1778060143 | 10.56° C | 49% | 987.5 hPa | 0 mm | - | 671 W/m² | - |
* Rain latest hour (hover to see other rain measurements)
** Current wind speed in m/s (hover to see current wind gust speed)